sensor_id;sensor_type;location;lat;lon;timestamp;pressure;altitude;pressure_sealevel;temperature;humidity
77366;BME280;66430;50.182;11.704;2023-08-06T00:01:15;93959.75;;;18.01;40.76
77366;BME280;66430;50.182;11.704;2023-08-06T00:03:40;93968.13;;;17.26;42.11
77366;BME280;66430;50.182;11.704;2023-08-06T00:06:06;93967.93;;;17.41;40.75
77366;BME280;66430;50.182;11.704;2023-08-06T00:08:31;93972.38;;;17.65;41.53
77366;BME280;66430;50.182;11.704;2023-08-06T00:10:56;93968.19;;;17.62;40.91
77366;BME280;66430;50.182;11.704;2023-08-06T00:13:21;93964.68;;;17.36;40.65
77366;BME280;66430;50.182;11.704;2023-08-06T00:15:47;93957.18;;;17.22;41.13
77366;BME280;66430;50.182;11.704;2023-08-06T00:18:12;93952.48;;;17.00;42.55
77366;BME280;66430;50.182;11.704;2023-08-06T00:20:39;93952.70;;;16.76;43.42
77366;BME280;66430;50.182;11.704;2023-08-06T00:23:03;93947.31;;;17.09;42.97
77366;BME280;66430;50.182;11.704;2023-08-06T00:25:28;93945.69;;;17.25;42.74
77366;BME280;66430;50.182;11.704;2023-08-06T00:27:54;93944.64;;;17.67;42.18
77366;BME280;66430;50.182;11.704;2023-08-06T00:30:19;93942.81;;;17.47;42.21
77366;BME280;66430;50.182;11.704;2023-08-06T00:32:44;93937.75;;;17.87;41.89
77366;BME280;66430;50.182;11.704;2023-08-06T00:35:10;93935.16;;;17.84;41.48
77366;BME280;66430;50.182;11.704;2023-08-06T00:37:35;93930.96;;;18.04;40.90
77366;BME280;66430;50.182;11.704;2023-08-06T00:40:00;93931.80;;;18.17;40.35
77366;BME280;66430;50.182;11.704;2023-08-06T00:42:26;93929.53;;;17.79;41.26
77366;BME280;66430;50.182;11.704;2023-08-06T00:44:51;93927.55;;;17.71;41.00
77366;BME280;66430;50.182;11.704;2023-08-06T00:47:17;93930.49;;;17.98;40.77
77366;BME280;66430;50.182;11.704;2023-08-06T00:49:42;93926.27;;;17.69;40.65
77366;BME280;66430;50.182;11.704;2023-08-06T00:52:08;93925.04;;;17.53;40.42
77366;BME280;66430;50.182;11.704;2023-08-06T00:54:33;93924.57;;;18.32;39.83
77366;BME280;66430;50.182;11.704;2023-08-06T00:56:59;93921.27;;;18.09;39.71
77366;BME280;66430;50.182;11.704;2023-08-06T00:59:23;93921.40;;;18.16;39.69
77366;BME280;66430;50.182;11.704;2023-08-06T01:01:49;93919.22;;;18.23;39.50
77366;BME280;66430;50.182;11.704;2023-08-06T01:04:14;93917.25;;;18.19;39.71
77366;BME280;66430;50.182;11.704;2023-08-06T01:06:45;93914.24;;;18.09;39.13
77366;BME280;66430;50.182;11.704;2023-08-06T01:09:12;93910.92;;;18.16;39.04
77366;BME280;66430;50.182;11.704;2023-08-06T01:11:37;93907.25;;;18.41;39.14
77366;BME280;66430;50.182;11.704;2023-08-06T01:14:02;93909.72;;;18.46;39.12
77366;BME280;66430;50.182;11.704;2023-08-06T01:16:26;93907.32;;;18.72;39.03
77366;BME280;66430;50.182;11.704;2023-08-06T01:18:47;93905.94;;;18.50;38.82
77366;BME280;66430;50.182;11.704;2023-08-06T01:21:12;93906.47;;;18.25;38.83
77366;BME280;66430;50.182;11.704;2023-08-06T01:23:37;93905.78;;;18.49;38.90
77366;BME280;66430;50.182;11.704;2023-08-06T01:26:11;93899.90;;;18.22;38.58
77366;BME280;66430;50.182;11.704;2023-08-06T01:28:41;93895.48;;;18.51;38.57
77366;BME280;66430;50.182;11.704;2023-08-06T01:30:55;93885.18;;;18.19;38.76
77366;BME280;66430;50.182;11.704;2023-08-06T01:33:21;93879.97;;;18.24;38.90
77366;BME280;66430;50.182;11.704;2023-08-06T01:35:45;93880.27;;;18.48;38.89
77366;BME280;66430;50.182;11.704;2023-08-06T01:38:11;93881.33;;;18.24;38.90
77366;BME280;66430;50.182;11.704;2023-08-06T01:40:35;93883.23;;;18.18;39.04
77366;BME280;66430;50.182;11.704;2023-08-06T01:43:00;93881.65;;;18.38;39.24
77366;BME280;66430;50.182;11.704;2023-08-06T01:45:26;93878.48;;;18.41;39.10
77366;BME280;66430;50.182;11.704;2023-08-06T01:47:54;93870.88;;;18.42;38.87
77366;BME280;66430;50.182;11.704;2023-08-06T01:50:17;93867.47;;;18.69;38.89
77366;BME280;66430;50.182;11.704;2023-08-06T01:52:42;93866.12;;;18.22;38.73
77366;BME280;66430;50.182;11.704;2023-08-06T01:55:07;93862.12;;;18.44;38.76
77366;BME280;66430;50.182;11.704;2023-08-06T01:57:32;93856.01;;;18.45;38.80
77366;BME280;66430;50.182;11.704;2023-08-06T01:59:58;93849.56;;;18.70;38.83
77366;BME280;66430;50.182;11.704;2023-08-06T02:02:23;93846.77;;;17.98;39.36
77366;BME280;66430;50.182;11.704;2023-08-06T02:04:49;93847.01;;;18.28;39.92
77366;BME280;66430;50.182;11.704;2023-08-06T02:07:14;93845.76;;;18.09;39.69
77366;BME280;66430;50.182;11.704;2023-08-06T02:09:39;93842.08;;;18.13;39.29
77366;BME280;66430;50.182;11.704;2023-08-06T02:12:06;93838.40;;;18.41;38.91
77366;BME280;66430;50.182;11.704;2023-08-06T02:14:30;93839.32;;;17.88;40.20
77366;BME280;66430;50.182;11.704;2023-08-06T02:16:56;93837.18;;;18.23;39.84
77366;BME280;66430;50.182;11.704;2023-08-06T02:19:21;93835.58;;;17.64;40.74
77366;BME280;66430;50.182;11.704;2023-08-06T02:21:46;93833.63;;;17.75;40.70
77366;BME280;66430;50.182;11.704;2023-08-06T02:24:12;93832.98;;;17.72;40.34
77366;BME280;66430;50.182;11.704;2023-08-06T02:26:38;93834.09;;;18.13;40.91
77366;BME280;66430;50.182;11.704;2023-08-06T02:29:02;93830.36;;;17.99;41.17
77366;BME280;66430;50.182;11.704;2023-08-06T02:31:28;93829.95;;;17.99;40.67
77366;BME280;66430;50.182;11.704;2023-08-06T02:33:53;93828.20;;;17.87;41.03
77366;BME280;66430;50.182;11.704;2023-08-06T02:36:19;93828.79;;;18.25;40.76
77366;BME280;66430;50.182;11.704;2023-08-06T02:38:44;93824.75;;;18.13;41.43
77366;BME280;66430;50.182;11.704;2023-08-06T02:41:09;93820.46;;;18.05;41.14
77366;BME280;66430;50.182;11.704;2023-08-06T02:43:35;93817.08;;;18.12;41.45
77366;BME280;66430;50.182;11.704;2023-08-06T02:46:01;93816.41;;;17.86;42.33
77366;BME280;66430;50.182;11.704;2023-08-06T02:48:26;93817.06;;;17.92;42.37
77366;BME280;66430;50.182;11.704;2023-08-06T02:50:52;93815.09;;;17.65;42.65
77366;BME280;66430;50.182;11.704;2023-08-06T02:53:16;93812.39;;;18.30;41.98
77366;BME280;66430;50.182;11.704;2023-08-06T02:55:46;93806.18;;;17.68;42.93
77366;BME280;66430;50.182;11.704;2023-08-06T02:58:07;93797.99;;;18.10;42.55
77366;BME280;66430;50.182;11.704;2023-08-06T03:00:32;93792.89;;;17.71;42.82
77366;BME280;66430;50.182;11.704;2023-08-06T03:02:58;93792.62;;;17.69;42.85
77366;BME280;66430;50.182;11.704;2023-08-06T03:05:23;93796.84;;;17.83;42.55
77366;BME280;66430;50.182;11.704;2023-08-06T03:07:48;93794.92;;;18.32;42.44
77366;BME280;66430;50.182;11.704;2023-08-06T03:10:14;93792.97;;;17.80;42.28
77366;BME280;66430;50.182;11.704;2023-08-06T03:12:39;93790.66;;;17.82;42.41
77366;BME280;66430;50.182;11.704;2023-08-06T03:15:06;93791.75;;;17.88;42.73
77366;BME280;66430;50.182;11.704;2023-08-06T03:17:31;93793.46;;;17.86;42.49
77366;BME280;66430;50.182;11.704;2023-08-06T03:19:56;93790.54;;;17.54;43.21
77366;BME280;66430;50.182;11.704;2023-08-06T03:22:21;93794.35;;;17.68;43.46
77366;BME280;66430;50.182;11.704;2023-08-06T03:24:49;93792.17;;;17.50;43.45
77366;BME280;66430;50.182;11.704;2023-08-06T03:27:11;93793.95;;;17.51;43.38
77366;BME280;66430;50.182;11.704;2023-08-06T03:29:37;93796.58;;;17.43;43.44
77366;BME280;66430;50.182;11.704;2023-08-06T03:32:02;93791.40;;;17.91;43.04
77366;BME280;66430;50.182;11.704;2023-08-06T03:34:28;93789.71;;;17.35;43.43
77366;BME280;66430;50.182;11.704;2023-08-06T03:36:53;93788.36;;;18.07;42.60
77366;BME280;66430;50.182;11.704;2023-08-06T03:39:18;93786.04;;;17.50;43.20
77366;BME280;66430;50.182;11.704;2023-08-06T03:41:44;93787.10;;;17.77;42.60
77366;BME280;66430;50.182;11.704;2023-08-06T03:44:09;93783.37;;;17.22;43.05
77366;BME280;66430;50.182;11.704;2023-08-06T03:46:35;93779.82;;;17.56;43.42
77366;BME280;66430;50.182;11.704;2023-08-06T03:49:00;93776.54;;;17.39;43.30
77366;BME280;66430;50.182;11.704;2023-08-06T03:51:25;93776.33;;;17.33;43.66
77366;BME280;66430;50.182;11.704;2023-08-06T03:53:51;93776.36;;;17.64;43.09
77366;BME280;66430;50.182;11.704;2023-08-06T03:56:16;93775.78;;;17.99;43.21
77366;BME280;66430;50.182;11.704;2023-08-06T03:58:41;93771.76;;;17.49;42.94
77366;BME280;66430;50.182;11.704;2023-08-06T04:01:07;93769.72;;;17.19;43.50
77366;BME280;66430;50.182;11.704;2023-08-06T04:03:32;93769.63;;;17.55;42.99
77366;BME280;66430;50.182;11.704;2023-08-06T04:05:58;93766.65;;;17.46;43.03
77366;BME280;66430;50.182;11.704;2023-08-06T04:08:23;93762.63;;;17.49;43.18
77366;BME280;66430;50.182;11.704;2023-08-06T04:10:50;93759.82;;;17.37;43.52
77366;BME280;66430;50.182;11.704;2023-08-06T04:13:14;93757.16;;;17.27;43.45
77366;BME280;66430;50.182;11.704;2023-08-06T04:15:39;93756.86;;;17.39;43.49
77366;BME280;66430;50.182;11.704;2023-08-06T04:18:05;93759.61;;;17.26;43.35
77366;BME280;66430;50.182;11.704;2023-08-06T04:20:30;93760.41;;;17.51;43.15
77366;BME280;66430;50.182;11.704;2023-08-06T04:22:55;93760.76;;;17.45;43.29
77366;BME280;66430;50.182;11.704;2023-08-06T04:25:21;93761.57;;;17.36;43.33
77366;BME280;66430;50.182;11.704;2023-08-06T04:27:46;93762.86;;;17.15;43.24
77366;BME280;66430;50.182;11.704;2023-08-06T04:30:11;93763.88;;;17.46;42.91
77366;BME280;66430;50.182;11.704;2023-08-06T04:32:37;93764.67;;;17.87;42.86
77366;BME280;66430;50.182;11.704;2023-08-06T04:35:02;93764.16;;;17.60;42.85
77366;BME280;66430;50.182;11.704;2023-08-06T04:37:27;93760.83;;;17.74;42.42
77366;BME280;66430;50.182;11.704;2023-08-06T04:39:53;93762.41;;;17.58;42.95
77366;BME280;66430;50.182;11.704;2023-08-06T04:42:18;93761.41;;;17.28;43.05
77366;BME280;66430;50.182;11.704;2023-08-06T04:44:44;93759.37;;;17.90;42.27
77366;BME280;66430;50.182;11.704;2023-08-06T04:47:09;93753.40;;;18.05;41.92
77366;BME280;66430;50.182;11.704;2023-08-06T04:49:34;93755.54;;;17.90;42.28
77366;BME280;66430;50.182;11.704;2023-08-06T04:52:00;93757.61;;;18.23;42.06
77366;BME280;66430;50.182;11.704;2023-08-06T04:54:25;93755.19;;;17.51;43.02
77366;BME280;66430;50.182;11.704;2023-08-06T04:56:51;93753.38;;;17.82;42.35
77366;BME280;66430;50.182;11.704;2023-08-06T04:59:16;93755.13;;;17.49;42.32
77366;BME280;66430;50.182;11.704;2023-08-06T05:01:42;93753.92;;;17.75;42.29
77366;BME280;66430;50.182;11.704;2023-08-06T05:04:07;93751.93;;;17.84;42.18
77366;BME280;66430;50.182;11.704;2023-08-06T05:06:33;93746.04;;;17.56;42.58
77366;BME280;66430;50.182;11.704;2023-08-06T05:08:58;93734.96;;;17.93;42.02
77366;BME280;66430;50.182;11.704;2023-08-06T05:11:24;93741.29;;;17.61;42.15
77366;BME280;66430;50.182;11.704;2023-08-06T05:13:49;93738.50;;;17.91;42.15
77366;BME280;66430;50.182;11.704;2023-08-06T05:16:14;93736.18;;;18.03;41.73
77366;BME280;66430;50.182;11.704;2023-08-06T05:18:39;93739.52;;;17.74;41.89
77366;BME280;66430;50.182;11.704;2023-08-06T05:21:05;93740.94;;;18.07;41.68
77366;BME280;66430;50.182;11.704;2023-08-06T05:23:30;93745.78;;;17.99;41.99
77366;BME280;66430;50.182;11.704;2023-08-06T05:25:55;93750.04;;;17.58;42.41
77366;BME280;66430;50.182;11.704;2023-08-06T05:28:21;93750.71;;;18.06;41.90
77366;BME280;66430;50.182;11.704;2023-08-06T05:30:46;93754.65;;;17.92;42.36
77366;BME280;66430;50.182;11.704;2023-08-06T05:33:12;93755.59;;;18.05;42.10
77366;BME280;66430;50.182;11.704;2023-08-06T05:35:37;93757.07;;;18.02;42.26
77366;BME280;66430;50.182;11.704;2023-08-06T05:38:02;93759.17;;;18.04;42.17
77366;BME280;66430;50.182;11.704;2023-08-06T05:40:28;93756.85;;;17.69;42.39
77366;BME280;66430;50.182;11.704;2023-08-06T05:42:54;93756.97;;;18.06;42.89
77366;BME280;66430;50.182;11.704;2023-08-06T05:45:18;93752.63;;;17.75;42.44
77366;BME280;66430;50.182;11.704;2023-08-06T05:47:44;93756.81;;;17.62;42.98
77366;BME280;66430;50.182;11.704;2023-08-06T05:50:09;93757.30;;;17.56;42.85
77366;BME280;66430;50.182;11.704;2023-08-06T05:52:34;93757.35;;;17.49;43.01
77366;BME280;66430;50.182;11.704;2023-08-06T05:55:00;93756.10;;;17.87;42.21
77366;BME280;66430;50.182;11.704;2023-08-06T05:57:25;93755.54;;;17.85;42.20
77366;BME280;66430;50.182;11.704;2023-08-06T05:59:51;93749.34;;;17.63;42.24
77366;BME280;66430;50.182;11.704;2023-08-06T06:02:16;93747.02;;;17.34;42.50
77366;BME280;66430;50.182;11.704;2023-08-06T06:04:41;93748.60;;;17.70;42.31
77366;BME280;66430;50.182;11.704;2023-08-06T06:07:07;93747.37;;;17.58;42.66
77366;BME280;66430;50.182;11.704;2023-08-06T06:09:32;93745.97;;;17.80;42.38
77366;BME280;66430;50.182;11.704;2023-08-06T06:11:58;93745.45;;;17.83;42.37
77366;BME280;66430;50.182;11.704;2023-08-06T06:14:23;93740.62;;;17.69;42.40
77366;BME280;66430;50.182;11.704;2023-08-06T06:16:48;93739.11;;;17.91;42.52
77366;BME280;66430;50.182;11.704;2023-08-06T06:19:14;93739.58;;;17.51;42.99
77366;BME280;66430;50.182;11.704;2023-08-06T06:21:39;93740.15;;;17.66;42.92
77366;BME280;66430;50.182;11.704;2023-08-06T06:24:05;93732.17;;;17.72;42.39
77366;BME280;66430;50.182;11.704;2023-08-06T06:26:30;93727.84;;;18.30;42.27
77366;BME280;66430;50.182;11.704;2023-08-06T06:28:55;93726.84;;;17.65;42.56
77366;BME280;66430;50.182;11.704;2023-08-06T06:31:21;93731.39;;;17.80;43.15
77366;BME280;66430;50.182;11.704;2023-08-06T06:33:46;93731.32;;;17.92;42.91
77366;BME280;66430;50.182;11.704;2023-08-06T06:36:11;93729.64;;;17.88;42.57
77366;BME280;66430;50.182;11.704;2023-08-06T06:38:36;93735.90;;;17.92;42.71
77366;BME280;66430;50.182;11.704;2023-08-06T06:41:02;93736.93;;;17.59;43.21
77366;BME280;66430;50.182;11.704;2023-08-06T06:43:27;93734.45;;;18.29;42.59
77366;BME280;66430;50.182;11.704;2023-08-06T06:45:53;93731.65;;;17.68;42.88
77366;BME280;66430;50.182;11.704;2023-08-06T06:48:18;93731.47;;;17.63;43.31
77366;BME280;66430;50.182;11.704;2023-08-06T06:50:47;93734.47;;;18.25;43.10
77366;BME280;66430;50.182;11.704;2023-08-06T06:53:09;93730.44;;;18.22;42.72
77366;BME280;66430;50.182;11.704;2023-08-06T06:55:34;93729.60;;;17.71;43.80
77366;BME280;66430;50.182;11.704;2023-08-06T06:58:00;93726.46;;;17.93;43.37
77366;BME280;66430;50.182;11.704;2023-08-06T07:00:25;93726.41;;;17.91;43.54
77366;BME280;66430;50.182;11.704;2023-08-06T07:02:50;93726.30;;;18.34;42.95
77366;BME280;66430;50.182;11.704;2023-08-06T07:05:16;93720.80;;;17.90;43.59
77366;BME280;66430;50.182;11.704;2023-08-06T07:07:41;93722.95;;;17.77;43.97
77366;BME280;66430;50.182;11.704;2023-08-06T07:10:07;93721.92;;;18.61;43.45
77366;BME280;66430;50.182;11.704;2023-08-06T07:12:32;93728.66;;;17.95;43.68
77366;BME280;66430;50.182;11.704;2023-08-06T07:14:57;93728.89;;;18.04;43.65
77366;BME280;66430;50.182;11.704;2023-08-06T07:17:22;93726.95;;;18.60;43.25
77366;BME280;66430;50.182;11.704;2023-08-06T07:19:48;93724.49;;;18.40;43.37
77366;BME280;66430;50.182;11.704;2023-08-06T07:22:13;93725.54;;;18.40;43.22
77366;BME280;66430;50.182;11.704;2023-08-06T07:24:39;93726.90;;;17.99;43.59
77366;BME280;66430;50.182;11.704;2023-08-06T07:27:04;93722.62;;;18.50;43.13
77366;BME280;66430;50.182;11.704;2023-08-06T07:29:29;93725.97;;;18.17;43.22
77366;BME280;66430;50.182;11.704;2023-08-06T07:31:55;93719.88;;;18.65;43.20
77366;BME280;66430;50.182;11.704;2023-08-06T07:34:22;93718.75;;;18.63;43.06
77366;BME280;66430;50.182;11.704;2023-08-06T07:36:46;93720.75;;;18.82;44.15
77366;BME280;66430;50.182;11.704;2023-08-06T07:39:11;93722.23;;;19.09;43.27
77366;BME280;66430;50.182;11.704;2023-08-06T07:41:36;93726.71;;;18.82;42.93
77366;BME280;66430;50.182;11.704;2023-08-06T07:44:01;93722.52;;;18.35;43.66
77366;BME280;66430;50.182;11.704;2023-08-06T07:46:27;93722.52;;;18.98;42.99
77366;BME280;66430;50.182;11.704;2023-08-06T07:48:52;93722.79;;;18.94;43.72
77366;BME280;66430;50.182;11.704;2023-08-06T07:51:18;93722.36;;;18.87;43.58
77366;BME280;66430;50.182;11.704;2023-08-06T07:53:44;93718.80;;;18.67;42.65
77366;BME280;66430;50.182;11.704;2023-08-06T07:56:08;93717.61;;;19.12;42.37
77366;BME280;66430;50.182;11.704;2023-08-06T07:58:34;93716.40;;;19.16;42.64
77366;BME280;66430;50.182;11.704;2023-08-06T08:00:59;93715.93;;;19.06;43.48
77366;BME280;66430;50.182;11.704;2023-08-06T08:03:24;93713.46;;;18.89;43.52
77366;BME280;66430;50.182;11.704;2023-08-06T08:05:50;93710.03;;;19.35;43.50
77366;BME280;66430;50.182;11.704;2023-08-06T08:08:15;93704.78;;;19.25;42.31
77366;BME280;66430;50.182;11.704;2023-08-06T08:10:41;93701.33;;;19.33;43.32
77366;BME280;66430;50.182;11.704;2023-08-06T08:13:06;93700.10;;;19.39;42.78
77366;BME280;66430;50.182;11.704;2023-08-06T08:15:32;93697.36;;;19.57;41.99
77366;BME280;66430;50.182;11.704;2023-08-06T08:17:57;93695.58;;;19.31;41.94
77366;BME280;66430;50.182;11.704;2023-08-06T08:20:22;93693.90;;;19.33;42.15
77366;BME280;66430;50.182;11.704;2023-08-06T08:22:47;93691.09;;;19.07;42.43
77366;BME280;66430;50.182;11.704;2023-08-06T08:25:12;93685.67;;;19.33;42.84
77366;BME280;66430;50.182;11.704;2023-08-06T08:27:38;93686.90;;;19.82;42.31
77366;BME280;66430;50.182;11.704;2023-08-06T08:30:04;93685.12;;;19.78;42.41
77366;BME280;66430;50.182;11.704;2023-08-06T08:32:28;93684.97;;;19.69;41.96
77366;BME280;66430;50.182;11.704;2023-08-06T08:34:54;93679.44;;;19.93;41.16
77366;BME280;66430;50.182;11.704;2023-08-06T08:37:19;93677.73;;;19.36;42.81
77366;BME280;66430;50.182;11.704;2023-08-06T08:39:44;93673.63;;;20.01;43.04
77366;BME280;66430;50.182;11.704;2023-08-06T08:42:10;93667.18;;;20.46;42.18
77366;BME280;66430;50.182;11.704;2023-08-06T08:44:36;93665.34;;;20.59;41.99
77366;BME280;66430;50.182;11.704;2023-08-06T08:47:01;93660.61;;;20.39;42.29
77366;BME280;66430;50.182;11.704;2023-08-06T08:49:27;93662.15;;;20.58;42.41
77366;BME280;66430;50.182;11.704;2023-08-06T08:51:53;93658.41;;;20.26;41.08
77366;BME280;66430;50.182;11.704;2023-08-06T08:54:17;93661.77;;;20.47;40.85
77366;BME280;66430;50.182;11.704;2023-08-06T08:56:42;93659.48;;;20.71;40.64
77366;BME280;66430;50.182;11.704;2023-08-06T08:59:07;93658.97;;;20.10;42.83
77366;BME280;66430;50.182;11.704;2023-08-06T09:01:33;93655.18;;;20.95;40.87
77366;BME280;66430;50.182;11.704;2023-08-06T09:03:58;93656.98;;;20.77;40.73
77366;BME280;66430;50.182;11.704;2023-08-06T09:06:25;93657.92;;;20.33;41.17
77366;BME280;66430;50.182;11.704;2023-08-06T09:08:54;93658.31;;;20.56;40.41
77366;BME280;66430;50.182;11.704;2023-08-06T09:11:14;93661.00;;;20.15;41.10
77366;BME280;66430;50.182;11.704;2023-08-06T09:13:39;93653.92;;;20.46;41.93
77366;BME280;66430;50.182;11.704;2023-08-06T09:16:04;93654.27;;;20.64;42.26
77366;BME280;66430;50.182;11.704;2023-08-06T09:18:30;93651.40;;;20.57;41.73
77366;BME280;66430;50.182;11.704;2023-08-06T09:20:55;93650.39;;;20.95;41.94
77366;BME280;66430;50.182;11.704;2023-08-06T09:23:21;93647.16;;;21.32;41.26
77366;BME280;66430;50.182;11.704;2023-08-06T09:25:47;93651.38;;;21.21;41.67
77366;BME280;66430;50.182;11.704;2023-08-06T09:28:11;93655.26;;;21.51;41.60
77366;BME280;66430;50.182;11.704;2023-08-06T09:30:37;93653.27;;;21.71;40.71
77366;BME280;66430;50.182;11.704;2023-08-06T09:33:02;93650.48;;;22.01;40.22
77366;BME280;66430;50.182;11.704;2023-08-06T09:35:29;93646.84;;;22.18;39.72
77366;BME280;66430;50.182;11.704;2023-08-06T09:37:52;93647.95;;;22.04;39.47
77366;BME280;66430;50.182;11.704;2023-08-06T09:40:27;93646.38;;;22.18;38.65
77366;BME280;66430;50.182;11.704;2023-08-06T09:42:43;93651.44;;;21.39;38.92
77366;BME280;66430;50.182;11.704;2023-08-06T09:45:08;93646.37;;;21.53;36.08
77366;BME280;66430;50.182;11.704;2023-08-06T09:47:33;93640.20;;;21.13;37.45
77366;BME280;66430;50.182;11.704;2023-08-06T09:49:59;93637.17;;;21.04;37.77
77366;BME280;66430;50.182;11.704;2023-08-06T09:52:24;93633.98;;;20.91;39.64
77366;BME280;66430;50.182;11.704;2023-08-06T09:54:50;93634.84;;;21.03;39.08
77366;BME280;66430;50.182;11.704;2023-08-06T09:57:15;93631.49;;;21.06;39.55
77366;BME280;66430;50.182;11.704;2023-08-06T09:59:43;93629.13;;;20.84;38.77
77366;BME280;66430;50.182;11.704;2023-08-06T10:02:12;93624.54;;;20.66;38.53
77366;BME280;66430;50.182;11.704;2023-08-06T10:04:31;93625.79;;;21.16;38.41
77366;BME280;66430;50.182;11.704;2023-08-06T10:06:57;93618.66;;;21.32;39.90
77366;BME280;66430;50.182;11.704;2023-08-06T10:09:21;93619.68;;;21.32;40.44
77366;BME280;66430;50.182;11.704;2023-08-06T10:11:51;93612.99;;;21.35;39.33
77366;BME280;66430;50.182;11.704;2023-08-06T10:14:14;93610.78;;;21.19;39.61
77366;BME280;66430;50.182;11.704;2023-08-06T10:16:38;93598.95;;;21.78;39.35
77366;BME280;66430;50.182;11.704;2023-08-06T10:19:04;93594.23;;;21.72;37.85
77366;BME280;66430;50.182;11.704;2023-08-06T10:21:28;93592.43;;;21.68;39.31
77366;BME280;66430;50.182;11.704;2023-08-06T10:23:54;93595.18;;;21.44;35.64
77366;BME280;66430;50.182;11.704;2023-08-06T10:26:19;93609.34;;;21.11;37.07
77366;BME280;66430;50.182;11.704;2023-08-06T10:28:44;93610.32;;;21.27;37.32
77366;BME280;66430;50.182;11.704;2023-08-06T10:31:09;93608.57;;;20.85;37.57
77366;BME280;66430;50.182;11.704;2023-08-06T10:33:42;93613.05;;;20.66;37.50
77366;BME280;66430;50.182;11.704;2023-08-06T10:36:01;93617.37;;;20.61;38.08
77366;BME280;66430;50.182;11.704;2023-08-06T10:38:26;93617.06;;;20.49;37.08
77366;BME280;66430;50.182;11.704;2023-08-06T10:41:00;93618.19;;;20.36;37.68
77366;BME280;66430;50.182;11.704;2023-08-06T10:43:26;93615.54;;;20.19;38.07
77366;BME280;66430;50.182;11.704;2023-08-06T10:45:49;93610.89;;;20.63;39.39
77366;BME280;66430;50.182;11.704;2023-08-06T10:48:06;93608.29;;;20.45;38.90
77366;BME280;66430;50.182;11.704;2023-08-06T10:50:32;93606.74;;;20.60;38.53
77366;BME280;66430;50.182;11.704;2023-08-06T10:52:58;93604.63;;;20.69;38.76
77366;BME280;66430;50.182;11.704;2023-08-06T10:55:23;93600.85;;;20.87;38.00
77366;BME280;66430;50.182;11.704;2023-08-06T10:57:48;93592.29;;;20.63;39.52
77366;BME280;66430;50.182;11.704;2023-08-06T11:00:14;93593.37;;;20.74;39.12
77366;BME280;66430;50.182;11.704;2023-08-06T11:02:39;93589.54;;;20.77;38.35
77366;BME280;66430;50.182;11.704;2023-08-06T11:05:06;93589.08;;;20.86;39.39
77366;BME280;66430;50.182;11.704;2023-08-06T11:07:30;93587.82;;;21.13;39.04
77366;BME280;66430;50.182;11.704;2023-08-06T11:10:02;93588.28;;;21.44;39.55
77366;BME280;66430;50.182;11.704;2023-08-06T11:12:20;93584.39;;;21.28;38.92
77366;BME280;66430;50.182;11.704;2023-08-06T11:14:50;93587.93;;;21.55;37.71
77366;BME280;66430;50.182;11.704;2023-08-06T11:17:10;93585.68;;;21.04;37.55
77366;BME280;66430;50.182;11.704;2023-08-06T11:19:36;93581.04;;;20.40;39.19
77366;BME280;66430;50.182;11.704;2023-08-06T11:22:01;93581.96;;;21.32;39.76
77366;BME280;66430;50.182;11.704;2023-08-06T11:24:32;93580.39;;;20.71;39.20
77366;BME280;66430;50.182;11.704;2023-08-06T11:26:52;93583.63;;;20.57;39.64
77366;BME280;66430;50.182;11.704;2023-08-06T11:29:17;93585.16;;;20.70;39.36
77366;BME280;66430;50.182;11.704;2023-08-06T11:31:42;93588.01;;;20.58;39.47
77366;BME280;66430;50.182;11.704;2023-08-06T11:34:13;93586.42;;;21.00;39.56
77366;BME280;66430;50.182;11.704;2023-08-06T11:36:34;93586.15;;;21.37;39.39
77366;BME280;66430;50.182;11.704;2023-08-06T11:38:59;93581.73;;;21.64;38.52
77366;BME280;66430;50.182;11.704;2023-08-06T11:41:24;93582.82;;;21.73;38.07
77366;BME280;66430;50.182;11.704;2023-08-06T11:43:49;93581.52;;;21.59;38.19
77366;BME280;66430;50.182;11.704;2023-08-06T11:46:14;93579.18;;;21.00;39.21
77366;BME280;66430;50.182;11.704;2023-08-06T11:48:51;93574.87;;;21.68;39.10
77366;BME280;66430;50.182;11.704;2023-08-06T11:51:11;93571.00;;;21.58;41.53
77366;BME280;66430;50.182;11.704;2023-08-06T11:53:30;93570.95;;;21.66;38.59
77366;BME280;66430;50.182;11.704;2023-08-06T11:55:55;93565.74;;;21.62;39.63
77366;BME280;66430;50.182;11.704;2023-08-06T11:58:21;93562.88;;;22.05;40.46
77366;BME280;66430;50.182;11.704;2023-08-06T12:00:46;93561.00;;;21.81;40.08
77366;BME280;66430;50.182;11.704;2023-08-06T12:03:11;93558.36;;;21.76;37.39
77366;BME280;66430;50.182;11.704;2023-08-06T12:05:37;93560.54;;;21.97;40.11
77366;BME280;66430;50.182;11.704;2023-08-06T12:08:03;93557.53;;;22.41;38.98
77366;BME280;66430;50.182;11.704;2023-08-06T12:10:32;93565.32;;;22.28;38.61
77366;BME280;66430;50.182;11.704;2023-08-06T12:12:53;93569.24;;;21.37;37.77
77366;BME280;66430;50.182;11.704;2023-08-06T12:15:19;93567.83;;;21.54;37.07
77366;BME280;66430;50.182;11.704;2023-08-06T12:17:44;93577.26;;;20.74;37.38
77366;BME280;66430;50.182;11.704;2023-08-06T12:20:10;93576.87;;;20.76;38.68
77366;BME280;66430;50.182;11.704;2023-08-06T12:22:35;93577.51;;;20.87;38.73
77366;BME280;66430;50.182;11.704;2023-08-06T12:25:00;93578.76;;;20.60;39.05
77366;BME280;66430;50.182;11.704;2023-08-06T12:27:25;93577.89;;;19.73;39.60
77366;BME280;66430;50.182;11.704;2023-08-06T12:29:50;93577.66;;;20.22;40.37
77366;BME280;66430;50.182;11.704;2023-08-06T12:32:16;93575.17;;;19.89;40.41
77366;BME280;66430;50.182;11.704;2023-08-06T12:34:46;93572.34;;;20.54;39.72
77366;BME280;66430;50.182;11.704;2023-08-06T12:37:06;93571.24;;;20.24;39.47
77366;BME280;66430;50.182;11.704;2023-08-06T12:39:31;93569.62;;;20.48;40.48